Data for 08/15/2010

Time Sea-Level Adjusted Pressure Absolute Pressure Temperature Relative Humidity Dew Point   
(mb) (inHg) (mb) (inHg) (C) (F) (%) (C) (F)
00:05 1026 30.3 856 25.28 11.7 53.1 76 7.7 45.8
00:10 1026 30.3 856 25.28 11.7 53.1 75 7.5 45.6
00:15 1026 30.3 856 25.28 11.9 53.4 75 7.6 45.6
00:20 1026 30.3 856 25.28 11.9 53.3 75 7.6 45.6
00:25 1027 30.33 856 25.28 11.8 53.2 75 7.6 45.7
00:30 1027 30.33 856 25.28 11.4 52.5 78 7.6 45.8
00:35 1027 30.33 856 25.28 11 51.9 78 7.4 45.3
00:40 1026 30.3 856 25.28 11 51.7 79 7.5 45.4
00:45 1026 30.3 856 25.28 10.9 51.7 79 7.4 45.4
00:50 1026 30.3 856 25.28 11 51.7 78 7.3 45.2
00:55 1027 30.33 856 25.28 11 51.8 79 7.4 45.4
01:00 1027 30.33 856 25.28 10.9 51.7 79 7.5 45.4
01:05 1027 30.33 856 25.28 10.8 51.5 80 7.5 45.5
01:10 1027 30.33 856 25.28 10.8 51.4 80 7.5 45.4
01:15 1027 30.33 856 25.28 10.7 51.2 80 7.4 45.4
01:20 1026 30.3 856 25.28 10.7 51.2 80 7.4 45.4
01:25 1026 30.3 856 25.28 10.6 51.1 81 7.6 45.6
01:30 1027 30.33 856 25.28 10.7 51.3 80 7.5 45.5
01:35 1027 30.33 856 25.28 10.7 51.3 81 7.6 45.7
01:40 1027 30.33 856 25.28 10.6 51 80 7.4 45.2
01:45 1027 30.33 856 25.28 10.4 50.7 79 6.9 44.5
01:50 1027 30.33 856 25.28 10.3 50.6 78 6.7 44
01:55 1027 30.33 856 25.28 10.3 50.5 78 6.6 43.8
02:00 1027 30.33 856 25.28 10.3 50.6 77 6.5 43.7
02:05 1027 30.33 856 25.28 10.3 50.6 77 6.4 43.6
02:10 1027 30.33 856 25.28 10.3 50.6 76 6.4 43.5
02:15 1027 30.33 856 25.28 10.4 50.7 76 6.4 43.6
02:20 1027 30.33 856 25.28 10.3 50.5 77 6.5 43.7
02:25 1027 30.33 856 25.28 10 50 78 6.4 43.6
02:30 1027 30.33 856 25.28 9.9 49.7 79 6.5 43.6
02:35 1027 30.33 856 25.28 9.9 49.8 81 6.8 44.3
02:40 1027 30.33 856 25.28 9.8 49.6 81 6.8 44.2
02:45 1027 30.33 856 25.28 9.7 49.4 83 6.9 44.4
02:50 1027 30.33 856 25.28 9.7 49.4 81 6.6 43.9
02:55 1027 30.33 856 25.28 9.6 49.2 81 6.5 43.6
03:00 1027 30.33 856 25.28 9.2 48.5 81 6.1 42.9
03:05 1027 30.33 856 25.28 9 48.2 81 6 42.8
03:10 1027 30.33 856 25.28 8.8 47.9 82 5.9 42.6
03:15 1027 30.33 856 25.28 9 48.1 81 5.9 42.6
03:20 1027 30.33 856 25.28 8.8 47.9 82 6 42.8
03:25 1027 30.33 856 25.28 8.7 47.7 82 5.9 42.5
03:30 1027 30.33 856 25.28 8.6 47.4 82 5.7 42.3
03:35 1027 30.33 856 25.28 8.6 47.4 82 5.7 42.2
03:40 1027 30.33 856 25.28 8.7 47.6 81 5.6 42.1
03:45 1027 30.33 856 25.28 8.8 47.8 83 6 42.8
03:50 1027 30.33 856 25.28 8.9 48 81 5.8 42.5
03:55 1027 30.33 856 25.28 8.7 47.6 81 5.7 42.2
04:00 1027 30.33 856 25.28 8.6 47.5 82 5.6 42.2
04:05 1027 30.33 856 25.28 8.6 47.5 81 5.6 42.1
04:10 1027 30.33 856 25.28 9.2 48.6 79 5.7 42.2
04:15 1027 30.33 856 25.28 9.4 49 80 6.2 43.1
04:20 1027 30.33 856 25.28 9.5 49.2 80 6.3 43.3
04:25 1027 30.33 856 25.28 9.4 49 80 6.1 43.1
04:30 1027 30.33 856 25.28 9.3 48.7 81 6.2 43.1
04:35 1027 30.33 856 25.28 9 48.1 82 6.1 42.9
04:40 1027 30.33 856 25.28 8.7 47.6 83 5.9 42.6
04:45 1027 30.33 856 25.28 8.2 46.8 83 5.6 42
04:50 1027 30.33 856 25.28 7.9 46.3 84 5.4 41.8
04:55 1027 30.33 856 25.28 7.8 46.1 84 5.3 41.6
05:00 1027 30.33 856 25.28 7.8 46 84 5.3 41.5
05:05 1027 30.33 856 25.28 7.7 45.8 85 5.3 41.6
05:10 1027 30.33 856 25.28 7.5 45.5 86 5.3 41.5
05:15 1027 30.33 856 25.28 7.5 45.5 85 5.1 41.2
05:20 1027 30.33 856 25.28 7.6 45.6 87 5.5 41.9
05:25 1027 30.33 856 25.28 8.1 46.7 83 5.4 41.8
05:30 1027 30.33 856 25.28 8.4 47.2 83 5.7 42.3
05:35 1027 30.33 856 25.28 8.4 47.2 84 5.8 42.5
05:40 1027 30.33 856 25.28 8.4 47 85 5.9 42.7
05:45 1027 30.33 856 25.28 8.5 47.4 84 6 42.8
05:50 1027 30.33 856 25.28 8.7 47.7 83 6 42.7
05:55 1027 30.33 856 25.28 8.5 47.3 83 5.8 42.5
06:00 1027 30.33 856 25.28 8 46.5 85 5.7 42.2
06:05 1027 30.33 856 25.28 7.7 45.9 86 5.5 41.9
06:10 1027 30.33 856 25.28 7.7 45.8 85 5.4 41.7
06:15 1027 30.33 856 25.28 7.6 45.7 85 5.3 41.6
06:20 1027 30.33 856 25.28 7.5 45.5 86 5.3 41.6
06:25 1027 30.33 856 25.28 7.2 44.9 87 5.2 41.3
06:30 1027 30.33 856 25.28 7.1 44.7 88 5.1 41.3
06:35 1027 30.33 856 25.28 7.2 45 86 5.1 41.2
06:40 1027 30.33 856 25.28 7.8 46 84 5.3 41.5
06:45 1027 30.33 856 25.28 8.1 46.5 84 5.5 41.9
06:50 1027 30.33 856 25.28 8.1 46.5 83 5.4 41.7
06:55 1027 30.33 856 25.28 8 46.3 83 5.3 41.5
07:00 1027 30.33 856 25.28 8 46.3 83 5.2 41.3
07:05 1027 30.33 856 25.28 8.1 46.6 82 5.2 41.4
07:10 1027 30.33 856 25.28 8.2 46.8 82 5.3 41.6
07:15 1027 30.33 856 25.28 8.4 47.2 81 5.3 41.6
07:20 1027 30.33 856 25.28 8.5 47.4 81 5.5 41.8
07:25 1027 30.33 856 25.28 8.8 47.9 79 5.4 41.7
07:30 1027 30.33 856 25.28 9.5 49 77 5.6 42
07:35 1027 30.33 856 25.28 9.8 49.7 76 5.8 42.5
07:40 1027 30.33 856 25.28 10 50 76 5.9 42.6
07:45 1027 30.33 856 25.28 10.4 50.7 74 5.9 42.6
07:50 1027 30.33 856 25.28 10.6 51.1 74 6.2 43.2
07:55 1027 30.33 857 25.31 10.5 51 75 6.2 43.2
08:00 1027 30.33 857 25.31 10.8 51.4 74 6.4 43.5
08:05 1027 30.33 857 25.31 11.1 51.9 73 6.4 43.5
08:10 1027 30.33 857 25.31 11.6 52.8 72 6.6 43.9
08:15 1027 30.33 857 25.31 12.2 54 70 6.9 44.4
08:20 1028 30.36 857 25.31 13.1 55.5 66 7 44.5
08:25 1028 30.36 857 25.31 13.2 55.8 66 7 44.6
08:30 1028 30.36 857 25.31 13.1 55.6 66 7 44.5
08:35 1028 30.36 857 25.31 13.6 56.4 66 7.3 45.1
08:40 1027 30.33 857 25.31 13.8 56.8 64 7.2 45
08:45 1027 30.33 857 25.31 13.5 56.3 67 7.6 45.6
08:50 1027 30.33 857 25.31 13.9 57.1 65 7.5 45.5
08:55 1027 30.33 857 25.31 13.6 56.5 68 7.8 46.1
09:00 1027 30.33 857 25.31 13 55.4 66 6.9 44.4
09:05 1027 30.33 857 25.31 13.6 56.5 66 7.4 45.3
09:10 1027 30.33 857 25.31 13.6 56.4 66 7.5 45.5
09:15 1027 30.33 857 25.31 13.4 56.1 67 7.4 45.3
09:20 1027 30.33 857 25.31 13.1 55.5 67 7.2 45
09:25 1027 30.33 857 25.31 13.6 56.4 66 7.3 45.2
09:30 1027 30.33 857 25.31 13.1 55.7 68 7.4 45.2
09:35 1027 30.33 857 25.31 13.7 56.7 63 6.9 44.4
09:40 1027 30.33 857 25.31 14.9 58.8 61 7.4 45.3
09:45 1027 30.33 857 25.31 15.6 60 58 7.5 45.5
09:50 1027 30.33 856 25.28 15.3 59.5 61 7.8 46
09:55 1027 30.33 856 25.28 15.5 59.8 59 7.6 45.6
10:00 1027 30.33 856 25.28 15.2 59.3 58 7.2 44.9
10:05 1027 30.33 856 25.28 15.7 60.2 57 7.4 45.3
10:10 1027 30.33 856 25.28 15.6 60 60 7.8 46.1
10:15 1027 30.33 856 25.28 15.8 60.4 58 7.5 45.6
10:20 1027 30.33 856 25.28 16.4 61.5 55 7.4 45.4
10:25 1027 30.33 856 25.28 16.9 62.3 54 7.7 45.9
10:30 1027 30.33 856 25.28 17.4 63.4 53 7.7 45.9
10:35 1027 30.33 856 25.28 16.8 62.2 55 7.9 46.3
10:40 1027 30.33 856 25.28 17.4 63.2 53 7.7 45.8
10:45 1027 30.33 856 25.28 17.6 63.6 55 8.4 47.2
10:50 1027 30.33 856 25.28 16.9 62.4 55 7.8 46.1
10:55 1027 30.33 856 25.28 17 62.5 55 7.9 46.3
11:00 1027 30.33 856 25.28 17.7 63.8 53 8 46.4
11:05 1027 30.33 856 25.28 18.4 65.1 50 7.9 46.3
11:10 1027 30.33 856 25.28 18.7 65.7 50 8.1 46.6
11:15 1027 30.33 856 25.28 17.9 64.2 53 8.2 46.8
11:20 1027 30.33 856 25.28 18.3 65 50 7.9 46.3
11:25 1027 30.33 856 25.28 18.1 64.5 53 8.4 47.2
11:30 1027 30.33 856 25.28 17.9 64.1 53 8.3 46.9
11:35 1027 30.33 856 25.28 17.2 63 55 8.3 46.9
11:40 1027 30.33 856 25.28 17.5 63.4 52 7.7 45.9
11:45 1027 30.33 856 25.28 17.4 63.4 54 8.1 46.6
11:50 1027 30.33 856 25.28 17.3 63.1 51 7.2 45
11:55 1027 30.33 856 25.28 18.7 65.7 47 7.2 45
12:00 1027 30.33 856 25.28 19.6 67.3 49 8.6 47.5
12:05 1026 30.3 856 25.28 18.8 65.9 51 8.5 47.3
12:10 1026 30.3 856 25.28 18.4 65.1 48 7.3 45.1
12:15 1026 30.3 856 25.28 19.3 66.7 48 8.1 46.5
12:20 1026 30.3 855 25.25 19.1 66.4 47 7.8 46
12:25 1026 30.3 855 25.25 19 66.2 49 8.2 46.7
12:30 1026 30.3 855 25.25 19.4 67 44 7 44.6
12:35 1026 30.3 855 25.25 20.3 68.5 42 7.1 44.7
12:40 1026 30.3 855 25.25 20.7 69.2 41 7.2 44.9
12:45 1026 30.3 855 25.25 20.6 69 39 6.4 43.6
12:50 1026 30.3 855 25.25 20.4 68.8 44 7.8 46.1
12:55 1026 30.3 855 25.25 19.8 67.6 42 6.8 44.3
13:00 1026 30.3 855 25.25 19.4 66.9 41 5.8 42.4
13:05 1026 30.3 855 25.25 20.4 68.8 38 5.9 42.7
13:10 1026 30.3 855 25.25 20.9 69.7 38 6.2 43.2
13:15 1026 30.3 855 25.25 20 68 42 6.8 44.3
13:20 1026 30.3 855 25.25 20.3 68.5 36 4.7 40.5
13:25 1026 30.3 855 25.25 21.9 71.4 34 5.5 42
13:30 1026 30.3 855 25.25 22.1 71.8 34 5.8 42.5
13:35 1025 30.27 855 25.25 22 71.7 32 4.8 40.7
13:40 1025 30.27 855 25.25 22 71.6 31 4.5 40
13:45 1025 30.27 855 25.25 22.5 72.5 30 4.3 39.7
13:50 1025 30.27 854 25.22 22.7 72.8 29 3.8 38.8
13:55 1025 30.27 854 25.22 22.7 72.9 29 3.9 39.1
14:00 1025 30.27 854 25.22 22.8 73 27 3.2 37.7
14:05 1025 30.27 854 25.22 23.3 73.9 26 3 37.3
14:10 1025 30.27 854 25.22 23.4 74.1 26 2.9 37.2
14:15 1025 30.27 854 25.22 23.1 73.6 28 3.7 38.7
14:20 1025 30.27 854 25.22 22.7 72.9 27 2.9 37.3
14:25 1025 30.27 854 25.22 23.3 74 25 2.5 36.5
14:30 1025 30.27 854 25.22 23.7 74.6 26 3.1 37.6
14:35 1025 30.27 854 25.22 23.2 73.8 26 3.1 37.5
14:40 1025 30.27 854 25.22 23.8 74.9 25 2.9 37.1
14:45 1025 30.27 854 25.22 23.2 73.7 27 3.3 38
14:50 1025 30.27 854 25.22 22.9 73.2 28 3.5 38.3
14:55 1025 30.27 854 25.22 23.3 73.9 27 3.3 38
15:00 1025 30.27 854 25.22 22.5 72.6 29 3.7 38.7
15:05 1025 30.27 854 25.22 23.3 74 26 3.2 37.8
15:10 1025 30.27 854 25.22 24 75.2 26 3.5 38.4
15:15 1025 30.27 854 25.22 24 75.2 26 3.3 37.9
15:20 1025 30.27 854 25.22 24.3 75.8 25 3.3 37.9
15:25 1025 30.27 854 25.22 23.9 75 25 3 37.4
15:30 1025 30.27 854 25.22 24 75.3 27 4 39.2
15:35 1024 30.24 854 25.22 24.7 76.4 26 3.9 39.1
15:40 1024 30.24 854 25.22 24.1 75.4 28 4.6 40.2
15:45 1024 30.24 854 25.22 22.9 73.2 27 3.2 37.8
15:50 1024 30.24 854 25.22 23.7 74.6 26 3.4 38
15:55 1024 30.24 854 25.22 23.2 73.8 27 3.2 37.8
16:00 1024 30.24 853 25.19 23 73.4 28 3.5 38.3
16:05 1024 30.24 853 25.19 23.6 74.4 26 3 37.3
16:10 1024 30.24 853 25.19 23.5 74.2 27 3.5 38.3
16:15 1024 30.24 853 25.19 23.9 75.1 25 3.1 37.6
16:20 1024 30.24 853 25.19 24.2 75.6 24 2.6 36.7
16:25 1024 30.24 853 25.19 23.8 74.8 25 2.8 37
16:30 1024 30.24 853 25.19 23.3 73.9 25 2.2 36
16:35 1024 30.24 853 25.19 24.3 75.8 24 2.9 37.2
16:40 1024 30.24 853 25.19 24.3 75.8 25 3.1 37.6
16:45 1024 30.24 853 25.19 24.3 75.7 25 3.5 38.3
16:50 1024 30.24 853 25.19 24.6 76.2 26 4.1 39.3
16:55 1024 30.24 853 25.19 24.3 75.7 26 3.7 38.7
17:00 1024 30.24 853 25.19 24.4 76 24 3 37.3
17:05 1024 30.24 853 25.19 24.5 76.1 25 3.5 38.2
17:10 1024 30.24 853 25.19 24.4 76 25 3.2 37.8
17:15 1024 30.24 853 25.19 24.4 76 24 2.6 36.7
17:20 1024 30.24 853 25.19 24.6 76.2 23 2.6 36.7
17:25 1024 30.24 853 25.19 24.8 76.6 23 2.7 36.8
17:30 1024 30.24 853 25.19 24.8 76.6 24 3.1 37.7
17:35 1024 30.24 853 25.19 25 77 23 2.7 36.9
17:40 1024 30.24 853 25.19 25.2 77.4 22 2.3 36.1
17:45 1024 30.24 853 25.19 24.9 76.8 22 1.8 35.3
17:50 1024 30.24 853 25.19 24.9 76.8 23 2.6 36.7
17:55 1024 30.24 853 25.19 25.2 77.3 22 2.1 35.8
18:00 1024 30.24 853 25.19 25.2 77.3 21 1.3 34.4
18:05 1024 30.24 853 25.19 24.4 75.9 21 1.2 34.2
18:10 1024 30.24 853 25.19 24.7 76.4 20 0.4 32.7
18:15 1024 30.24 853 25.19 24.5 76.2 21 0.8 33.5
18:20 1024 30.24 853 25.19 24.6 76.2 20 0.6 33
18:25 1024 30.24 853 25.19 24.6 76.3 20 0.3 32.6
18:30 1024 30.24 853 25.19 24.4 75.8 20 0.5 32.9
18:35 1024 30.24 853 25.19 24.4 75.9 21 1.2 34.2
18:40 1024 30.24 853 25.19 24.1 75.3 22 1.4 34.5
18:45 1024 30.24 853 25.19 23.8 74.8 23 1.6 34.9
18:50 1024 30.24 853 25.19 23.8 74.8 24 2.2 35.9
18:55 1023 30.21 853 25.19 23.2 73.7 24 1.4 34.6
19:00 1023 30.21 853 25.19 23 73.4 26 2.8 37
19:05 1023 30.21 853 25.19 22.8 73 24 1.5 34.7
19:10 1023 30.21 853 25.19 22.6 72.6 25 1.7 35.1
19:15 1023 30.21 853 25.19 22.4 72.3 24 1 33.7
19:20 1023 30.21 853 25.19 22.4 72.4 23 0.5 33
19:25 1023 30.21 853 25.19 22.4 72.4 24 1.3 34.4
19:30 1023 30.21 853 25.19 22.5 72.4 26 2.1 35.8
19:35 1023 30.21 853 25.19 22.4 72.4 26 2.1 35.8
19:40 1023 30.21 853 25.19 22.3 72.1 28 3.2 37.8
19:45 1023 30.21 853 25.19 22.2 71.9 27 2.7 36.9
19:50 1023 30.21 853 25.19 22.1 71.7 27 2.3 36.1
19:55 1023 30.21 853 25.19 21.9 71.5 27 2.5 36.6
20:00 1023 30.21 853 25.19 21.7 71.1 29 3.1 37.5
20:05 1023 30.21 853 25.19 21.5 70.7 31 3.6 38.5
20:10 1024 30.24 853 25.19 21.3 70.4 32 4.3 39.8
20:15 1024 30.24 853 25.19 21.1 69.9 34 4.9 40.8
20:20 1024 30.24 853 25.19 20.6 69.1 34 4.4 40
20:25 1024 30.24 853 25.19 20.3 68.5 36 4.8 40.6
20:30 1024 30.24 853 25.19 20.1 68.2 38 5.7 42.3
20:35 1024 30.24 853 25.19 19.8 67.6 41 6.3 43.3
20:40 1024 30.24 853 25.19 19 66.3 47 7.6 45.6
20:45 1024 30.24 853 25.19 18.2 64.8 45 6.3 43.3
20:50 1024 30.24 853 25.19 18.6 65.4 48 7.6 45.6
20:55 1024 30.24 853 25.19 18.7 65.6 44 6.2 43.1
21:00 1024 30.24 853 25.19 18.7 65.7 46 7 44.6
21:05 1024 30.24 853 25.19 17.9 64.3 55 8.9 47.9
21:10 1024 30.24 853 25.19 16.9 62.5 53 7.5 45.4
21:15 1024 30.24 853 25.19 16.5 61.8 55 7.6 45.6
21:20 1024 30.24 853 25.19 16.3 61.4 54 7 44.6
21:25 1024 30.24 853 25.19 16 60.8 54 6.9 44.4
21:30 1024 30.24 853 25.19 15.7 60.2 54 6.6 43.9
21:35 1024 30.24 853 25.19 15.9 60.6 49 5.4 41.7
21:40 1024 30.24 853 25.19 16.2 61.2 49 5.7 42.2
21:45 1024 30.24 853 25.19 15.8 60.5 52 6 42.8
21:50 1024 30.24 853 25.19 15.4 59.7 54 6.2 43.2
21:55 1024 30.24 853 25.19 15.2 59.3 54 6.1 43
22:00 1024 30.24 853 25.19 15.1 59.2 53 5.6 42.1
22:05 1024 30.24 853 25.19 15.5 60 48 4.8 40.6
22:10 1024 30.24 853 25.19 16.4 61.4 45 4.6 40.2
22:15 1024 30.24 853 25.19 16.9 62.4 44 4.8 40.6
22:20 1024 30.24 853 25.19 17.1 62.7 45 5.1 41.3
22:25 1024 30.24 853 25.19 17 62.6 46 5.4 41.7
22:30 1024 30.24 853 25.19 17 62.5 47 5.7 42.3
22:35 1024 30.24 853 25.19 17 62.6 48 6 42.8
22:40 1024 30.24 854 25.22 17.1 62.7 48 6.2 43.1
22:45 1024 30.24 854 25.22 17.1 62.7 49 6.4 43.5
22:50 1024 30.24 854 25.22 17.1 62.8 49 6.5 43.8
22:55 1024 30.24 854 25.22 17 62.7 50 6.6 43.9
23:00 1024 30.24 854 25.22 17 62.5 51 6.8 44.3
23:05 1024 30.24 854 25.22 16.8 62.3 51 6.7 44.1
23:10 1024 30.24 854 25.22 16.7 62.1 51 6.7 44.1
23:15 1024 30.24 854 25.22 16.7 62.1 52 6.8 44.2
23:20 1024 30.24 854 25.22 16.6 61.8 52 6.8 44.3
23:25 1024 30.24 854 25.22 16.5 61.6 52 6.8 44.2
23:30 1024 30.24 854 25.22 16.4 61.5 53 6.8 44.3
23:35 1024 30.24 854 25.22 16.3 61.3 53 6.7 44.1
23:40 1024 30.24 854 25.22 16.2 61.2 53 6.6 43.9
23:45 1024 30.24 854 25.22 16.3 61.3 52 6.5 43.8
23:50 1024 30.24 854 25.22 16.2 61.2 53 6.6 43.9
23:55 1024 30.24 854 25.22 16.1 60.9 53 6.7 44
24:00 1024 30.24 854 25.22 16 60.7 53 6.5 43.8